sensor_id;sensor_type;location;lat;lon;timestamp;temperature;humidity
1259;DHT22;619;51.472;6.628;2023-03-23T00:01:19;19.20;75.20
1259;DHT22;619;51.472;6.628;2023-03-23T00:03:49;19.20;75.10
1259;DHT22;619;51.472;6.628;2023-03-23T00:06:20;19.30;75.20
1259;DHT22;619;51.472;6.628;2023-03-23T00:08:50;19.30;75.00
1259;DHT22;619;51.472;6.628;2023-03-23T00:11:23;19.40;75.10
1259;DHT22;619;51.472;6.628;2023-03-23T00:13:55;19.30;74.90
1259;DHT22;619;51.472;6.628;2023-03-23T00:16:26;19.40;74.80
1259;DHT22;619;51.472;6.628;2023-03-23T00:19:09;19.40;74.70
1259;DHT22;619;51.472;6.628;2023-03-23T00:21:37;19.40;74.80
1259;DHT22;619;51.472;6.628;2023-03-23T00:26:35;19.30;74.60
1259;DHT22;619;51.472;6.628;2023-03-23T00:29:04;19.40;74.80
1259;DHT22;619;51.472;6.628;2023-03-23T00:31:31;19.40;74.80
1259;DHT22;619;51.472;6.628;2023-03-23T00:33:59;19.30;74.70
1259;DHT22;619;51.472;6.628;2023-03-23T00:36:27;19.30;74.60
1259;DHT22;619;51.472;6.628;2023-03-23T00:38:54;19.40;74.80
1259;DHT22;619;51.472;6.628;2023-03-23T00:41:26;19.40;74.80
1259;DHT22;619;51.472;6.628;2023-03-23T00:43:56;19.40;74.80
1259;DHT22;619;51.472;6.628;2023-03-23T00:46:28;19.30;74.70
1259;DHT22;619;51.472;6.628;2023-03-23T00:48:56;19.40;74.80
1259;DHT22;619;51.472;6.628;2023-03-23T00:51:28;19.40;74.70
1259;DHT22;619;51.472;6.628;2023-03-23T00:53:53;19.40;74.60
1259;DHT22;619;51.472;6.628;2023-03-23T00:56:19;19.30;74.50
1259;DHT22;619;51.472;6.628;2023-03-23T00:58:45;19.40;74.80
1259;DHT22;619;51.472;6.628;2023-03-23T01:01:10;19.40;74.70
1259;DHT22;619;51.472;6.628;2023-03-23T01:03:38;19.40;74.60
1259;DHT22;619;51.472;6.628;2023-03-23T01:06:05;19.40;74.60
1259;DHT22;619;51.472;6.628;2023-03-23T01:08:31;19.40;74.60
1259;DHT22;619;51.472;6.628;2023-03-23T01:11:05;19.50;74.70
1259;DHT22;619;51.472;6.628;2023-03-23T01:13:31;19.50;74.60
1259;DHT22;619;51.472;6.628;2023-03-23T01:15:58;19.50;74.60
1259;DHT22;619;51.472;6.628;2023-03-23T01:18:24;19.50;74.60
1259;DHT22;619;51.472;6.628;2023-03-23T01:20:52;19.50;74.40
1259;DHT22;619;51.472;6.628;2023-03-23T01:23:17;19.50;74.50
1259;DHT22;619;51.472;6.628;2023-03-23T01:25:45;19.40;74.50
1259;DHT22;619;51.472;6.628;2023-03-23T01:28:11;19.40;74.60
1259;DHT22;619;51.472;6.628;2023-03-23T01:30:40;19.40;74.60
1259;DHT22;619;51.472;6.628;2023-03-23T01:33:08;19.50;74.80
1259;DHT22;619;51.472;6.628;2023-03-23T01:35:37;19.40;74.70
1259;DHT22;619;51.472;6.628;2023-03-23T01:38:03;19.40;74.80
1259;DHT22;619;51.472;6.628;2023-03-23T01:40:31;19.40;74.80
1259;DHT22;619;51.472;6.628;2023-03-23T01:42:59;19.40;74.80
1259;DHT22;619;51.472;6.628;2023-03-23T01:45:28;19.40;74.80
1259;DHT22;619;51.472;6.628;2023-03-23T01:48:31;19.40;74.90
1259;DHT22;619;51.472;6.628;2023-03-23T01:51:09;19.40;75.00
1259;DHT22;619;51.472;6.628;2023-03-23T01:53:49;19.30;75.00
1259;DHT22;619;51.472;6.628;2023-03-23T01:56:19;19.30;75.00
1259;DHT22;619;51.472;6.628;2023-03-23T01:58:46;19.30;75.10
1259;DHT22;619;51.472;6.628;2023-03-23T02:01:13;19.40;75.40
1259;DHT22;619;51.472;6.628;2023-03-23T02:03:43;19.40;75.40
1259;DHT22;619;51.472;6.628;2023-03-23T02:06:09;19.40;75.50
1259;DHT22;619;51.472;6.628;2023-03-23T02:08:35;19.40;75.50
1259;DHT22;619;51.472;6.628;2023-03-23T02:11:12;19.40;75.50
1259;DHT22;619;51.472;6.628;2023-03-23T02:13:40;19.40;75.50
1259;DHT22;619;51.472;6.628;2023-03-23T02:26:43;19.40;75.40
1259;DHT22;619;51.472;6.628;2023-03-23T02:32:08;19.40;75.60
1259;DHT22;619;51.472;6.628;2023-03-23T02:37:14;19.40;75.60
1259;DHT22;619;51.472;6.628;2023-03-23T02:39:53;19.40;75.70
1259;DHT22;619;51.472;6.628;2023-03-23T02:42:27;19.40;75.80
1259;DHT22;619;51.472;6.628;2023-03-23T02:44:54;19.40;75.90
1259;DHT22;619;51.472;6.628;2023-03-23T02:47:26;19.40;76.00
1259;DHT22;619;51.472;6.628;2023-03-23T02:49:55;19.40;76.10
1259;DHT22;619;51.472;6.628;2023-03-23T02:52:26;19.40;76.10
1259;DHT22;619;51.472;6.628;2023-03-23T02:54:53;19.40;76.20
1259;DHT22;619;51.472;6.628;2023-03-23T02:57:24;19.40;76.20
1259;DHT22;619;51.472;6.628;2023-03-23T02:59:54;19.40;76.20
1259;DHT22;619;51.472;6.628;2023-03-23T03:02:28;19.40;76.20
1259;DHT22;619;51.472;6.628;2023-03-23T03:07:52;19.40;76.40
1259;DHT22;619;51.472;6.628;2023-03-23T03:10:37;19.30;76.30
1259;DHT22;619;51.472;6.628;2023-03-23T03:15:40;19.30;76.40
1259;DHT22;619;51.472;6.628;2023-03-23T03:18:16;19.40;76.30
1259;DHT22;619;51.472;6.628;2023-03-23T03:20:46;19.40;76.50
1259;DHT22;619;51.472;6.628;2023-03-23T03:23:14;19.40;76.40
1259;DHT22;619;51.472;6.628;2023-03-23T03:25:43;19.40;76.30
1259;DHT22;619;51.472;6.628;2023-03-23T03:28:15;19.40;76.40
1259;DHT22;619;51.472;6.628;2023-03-23T03:30:45;19.40;76.50
1259;DHT22;619;51.472;6.628;2023-03-23T03:33:16;19.40;76.60
1259;DHT22;619;51.472;6.628;2023-03-23T03:35:46;19.40;76.70
1259;DHT22;619;51.472;6.628;2023-03-23T03:38:15;19.40;76.80
1259;DHT22;619;51.472;6.628;2023-03-23T03:40:45;19.30;76.70
1259;DHT22;619;51.472;6.628;2023-03-23T03:43:13;19.30;76.80
1259;DHT22;619;51.472;6.628;2023-03-23T03:45:39;19.30;76.80
1259;DHT22;619;51.472;6.628;2023-03-23T03:48:06;19.30;76.80
1259;DHT22;619;51.472;6.628;2023-03-23T03:50:34;19.30;76.70
1259;DHT22;619;51.472;6.628;2023-03-23T03:53:04;19.30;76.70
1259;DHT22;619;51.472;6.628;2023-03-23T03:55:31;19.30;76.60
1259;DHT22;619;51.472;6.628;2023-03-23T03:58:02;19.30;76.60
1259;DHT22;619;51.472;6.628;2023-03-23T04:00:29;19.30;76.60
1259;DHT22;619;51.472;6.628;2023-03-23T04:02:58;19.30;76.50
1259;DHT22;619;51.472;6.628;2023-03-23T04:05:25;19.30;76.50
1259;DHT22;619;51.472;6.628;2023-03-23T04:07:54;19.30;76.50
1259;DHT22;619;51.472;6.628;2023-03-23T04:10:30;19.30;76.50
1259;DHT22;619;51.472;6.628;2023-03-23T04:12:59;19.30;76.50
1259;DHT22;619;51.472;6.628;2023-03-23T04:15:25;19.30;76.40
1259;DHT22;619;51.472;6.628;2023-03-23T04:17:51;19.20;76.30
1259;DHT22;619;51.472;6.628;2023-03-23T04:20:17;19.20;76.20
1259;DHT22;619;51.472;6.628;2023-03-23T04:22:52;19.20;76.20
1259;DHT22;619;51.472;6.628;2023-03-23T04:25:23;19.20;76.20
1259;DHT22;619;51.472;6.628;2023-03-23T04:27:51;19.20;76.10
1259;DHT22;619;51.472;6.628;2023-03-23T04:30:22;19.20;76.20
1259;DHT22;619;51.472;6.628;2023-03-23T04:32:51;19.20;76.10
1259;DHT22;619;51.472;6.628;2023-03-23T04:35:19;19.20;76.10
1259;DHT22;619;51.472;6.628;2023-03-23T04:37:46;19.20;76.10
1259;DHT22;619;51.472;6.628;2023-03-23T04:40:15;19.20;76.10
1259;DHT22;619;51.472;6.628;2023-03-23T04:42:44;19.20;76.00
1259;DHT22;619;51.472;6.628;2023-03-23T04:45:15;19.30;76.00
1259;DHT22;619;51.472;6.628;2023-03-23T04:47:50;19.30;75.90
1259;DHT22;619;51.472;6.628;2023-03-23T04:50:21;19.30;75.90
1259;DHT22;619;51.472;6.628;2023-03-23T04:52:49;19.30;76.60
1259;DHT22;619;51.472;6.628;2023-03-23T04:55:19;19.30;75.80
1259;DHT22;619;51.472;6.628;2023-03-23T04:57:49;19.30;75.70
1259;DHT22;619;51.472;6.628;2023-03-23T05:00:20;19.30;76.40
1259;DHT22;619;51.472;6.628;2023-03-23T05:02:46;19.30;75.60
1259;DHT22;619;51.472;6.628;2023-03-23T05:05:13;19.30;75.60
1259;DHT22;619;51.472;6.628;2023-03-23T05:07:42;19.40;75.70
1259;DHT22;619;51.472;6.628;2023-03-23T05:10:13;19.40;75.50
1259;DHT22;619;51.472;6.628;2023-03-23T05:12:41;19.40;75.40
1259;DHT22;619;51.472;6.628;2023-03-23T05:15:16;19.40;75.30
1259;DHT22;619;51.472;6.628;2023-03-23T05:17:43;19.30;75.20
1259;DHT22;619;51.472;6.628;2023-03-23T05:20:13;19.40;75.30
1259;DHT22;619;51.472;6.628;2023-03-23T05:22:41;19.40;75.20
1259;DHT22;619;51.472;6.628;2023-03-23T05:25:10;19.40;75.20
1259;DHT22;619;51.472;6.628;2023-03-23T05:27:37;19.40;75.20
1259;DHT22;619;51.472;6.628;2023-03-23T05:30:04;19.40;75.20
1259;DHT22;619;51.472;6.628;2023-03-23T05:32:30;19.30;75.30
1259;DHT22;619;51.472;6.628;2023-03-23T05:34:59;19.30;75.40
1259;DHT22;619;51.472;6.628;2023-03-23T05:37:26;19.30;75.40
1259;DHT22;619;51.472;6.628;2023-03-23T05:39:54;19.30;75.40
1259;DHT22;619;51.472;6.628;2023-03-23T05:42:24;19.20;75.40
1259;DHT22;619;51.472;6.628;2023-03-23T05:44:50;19.20;75.40
1259;DHT22;619;51.472;6.628;2023-03-23T05:47:16;19.20;75.40
1259;DHT22;619;51.472;6.628;2023-03-23T05:49:42;19.20;75.40
1259;DHT22;619;51.472;6.628;2023-03-23T05:52:10;19.20;75.40
1259;DHT22;619;51.472;6.628;2023-03-23T05:54:36;19.30;75.40
1259;DHT22;619;51.472;6.628;2023-03-23T05:57:02;19.30;75.30
1259;DHT22;619;51.472;6.628;2023-03-23T05:59:31;19.30;75.30
1259;DHT22;619;51.472;6.628;2023-03-23T06:02:01;19.30;75.30
1259;DHT22;619;51.472;6.628;2023-03-23T06:04:29;19.30;75.20
1259;DHT22;619;51.472;6.628;2023-03-23T06:07:00;19.20;75.10
1259;DHT22;619;51.472;6.628;2023-03-23T06:09:26;19.30;75.20
1259;DHT22;619;51.472;6.628;2023-03-23T06:11:52;19.30;75.10
1259;DHT22;619;51.472;6.628;2023-03-23T06:14:22;19.30;75.00
1259;DHT22;619;51.472;6.628;2023-03-23T06:16:48;19.40;74.90
1259;DHT22;619;51.472;6.628;2023-03-23T06:19:21;19.40;74.80
1259;DHT22;619;51.472;6.628;2023-03-23T06:21:48;19.40;74.70
1259;DHT22;619;51.472;6.628;2023-03-23T06:24:17;19.40;74.60
1259;DHT22;619;51.472;6.628;2023-03-23T06:26:43;19.30;74.70
1259;DHT22;619;51.472;6.628;2023-03-23T06:29:09;19.30;74.60
1259;DHT22;619;51.472;6.628;2023-03-23T06:31:44;19.30;74.60
1259;DHT22;619;51.472;6.628;2023-03-23T06:34:10;19.30;74.40
1259;DHT22;619;51.472;6.628;2023-03-23T06:36:37;19.40;74.50
1259;DHT22;619;51.472;6.628;2023-03-23T06:39:05;19.40;74.40
1259;DHT22;619;51.472;6.628;2023-03-23T06:41:31;19.50;74.30
1259;DHT22;619;51.472;6.628;2023-03-23T06:44:03;19.50;74.10
1259;DHT22;619;51.472;6.628;2023-03-23T06:46:34;19.50;73.90
1259;DHT22;619;51.472;6.628;2023-03-23T06:49:02;19.60;73.60
1259;DHT22;619;51.472;6.628;2023-03-23T06:51:29;19.60;73.50
1259;DHT22;619;51.472;6.628;2023-03-23T06:53:54;19.60;73.40
1259;DHT22;619;51.472;6.628;2023-03-23T06:56:23;19.70;73.50
1259;DHT22;619;51.472;6.628;2023-03-23T06:58:49;19.70;73.40
1259;DHT22;619;51.472;6.628;2023-03-23T07:01:17;19.80;73.10
1259;DHT22;619;51.472;6.628;2023-03-23T07:03:44;19.80;72.90
1259;DHT22;619;51.472;6.628;2023-03-23T07:06:14;19.80;72.80
1259;DHT22;619;51.472;6.628;2023-03-23T07:08:42;19.80;72.70
1259;DHT22;619;51.472;6.628;2023-03-23T07:11:10;19.90;72.70
1259;DHT22;619;51.472;6.628;2023-03-23T07:13:36;19.90;72.50
1259;DHT22;619;51.472;6.628;2023-03-23T07:16:08;19.90;72.40
1259;DHT22;619;51.472;6.628;2023-03-23T07:18:34;19.90;72.20
1259;DHT22;619;51.472;6.628;2023-03-23T07:21:00;19.90;72.20
1259;DHT22;619;51.472;6.628;2023-03-23T07:23:31;19.90;72.10
1259;DHT22;619;51.472;6.628;2023-03-23T07:25:56;19.90;72.20
1259;DHT22;619;51.472;6.628;2023-03-23T07:28:22;19.80;72.10
1259;DHT22;619;51.472;6.628;2023-03-23T07:30:48;19.80;72.10
1259;DHT22;619;51.472;6.628;2023-03-23T07:33:16;19.80;72.20
1259;DHT22;619;51.472;6.628;2023-03-23T07:35:41;19.80;72.00
1259;DHT22;619;51.472;6.628;2023-03-23T07:38:07;19.90;72.00
1259;DHT22;619;51.472;6.628;2023-03-23T07:40:35;19.80;71.80
1259;DHT22;619;51.472;6.628;2023-03-23T07:43:04;19.90;71.90
1259;DHT22;619;51.472;6.628;2023-03-23T07:45:30;19.80;71.70
1259;DHT22;619;51.472;6.628;2023-03-23T07:47:59;19.80;71.70
1259;DHT22;619;51.472;6.628;2023-03-23T07:50:25;19.90;71.70
1259;DHT22;619;51.472;6.628;2023-03-23T07:52:54;19.90;71.50
1259;DHT22;619;51.472;6.628;2023-03-23T07:55:23;19.90;71.30
1259;DHT22;619;51.472;6.628;2023-03-23T07:57:50;19.90;71.30
1259;DHT22;619;51.472;6.628;2023-03-23T08:00:22;19.90;71.20
1259;DHT22;619;51.472;6.628;2023-03-23T08:02:58;20.00;71.10
1259;DHT22;619;51.472;6.628;2023-03-23T08:05:25;20.00;71.00
1259;DHT22;619;51.472;6.628;2023-03-23T08:07:52;20.00;71.10
1259;DHT22;619;51.472;6.628;2023-03-23T08:10:20;20.00;71.40
1259;DHT22;619;51.472;6.628;2023-03-23T08:12:54;19.90;70.70
1259;DHT22;619;51.472;6.628;2023-03-23T08:15:23;20.00;70.70
1259;DHT22;619;51.472;6.628;2023-03-23T08:17:49;20.00;70.60
1259;DHT22;619;51.472;6.628;2023-03-23T08:20:18;20.00;70.40
1259;DHT22;619;51.472;6.628;2023-03-23T08:22:50;20.00;70.60
1259;DHT22;619;51.472;6.628;2023-03-23T08:25:18;20.00;70.70
1259;DHT22;619;51.472;6.628;2023-03-23T08:27:44;20.10;70.70
1259;DHT22;619;51.472;6.628;2023-03-23T08:30:16;20.10;70.40
1259;DHT22;619;51.472;6.628;2023-03-23T08:32:45;20.10;70.00
1259;DHT22;619;51.472;6.628;2023-03-23T08:35:13;20.10;70.20
1259;DHT22;619;51.472;6.628;2023-03-23T08:37:41;20.30;70.70
1259;DHT22;619;51.472;6.628;2023-03-23T08:40:11;20.30;70.70
1259;DHT22;619;51.472;6.628;2023-03-23T08:42:38;20.40;70.70
1259;DHT22;619;51.472;6.628;2023-03-23T08:45:06;20.50;70.40
1259;DHT22;619;51.472;6.628;2023-03-23T08:47:34;20.50;70.10
1259;DHT22;619;51.472;6.628;2023-03-23T08:50:02;20.50;69.50
1259;DHT22;619;51.472;6.628;2023-03-23T08:52:28;20.50;69.30
1259;DHT22;619;51.472;6.628;2023-03-23T08:54:54;20.60;69.40
1259;DHT22;619;51.472;6.628;2023-03-23T08:57:25;20.60;69.20
1259;DHT22;619;51.472;6.628;2023-03-23T08:59:56;20.60;69.10
1259;DHT22;619;51.472;6.628;2023-03-23T09:02:41;20.50;68.60
1259;DHT22;619;51.472;6.628;2023-03-23T09:05:08;20.40;68.50
1259;DHT22;619;51.472;6.628;2023-03-23T09:07:37;20.30;68.30
1259;DHT22;619;51.472;6.628;2023-03-23T09:10:03;20.20;68.60
1259;DHT22;619;51.472;6.628;2023-03-23T09:12:31;20.10;68.90
1259;DHT22;619;51.472;6.628;2023-03-23T09:14:59;20.00;69.80
1259;DHT22;619;51.472;6.628;2023-03-23T09:17:39;19.90;71.10
1259;DHT22;619;51.472;6.628;2023-03-23T09:20:09;19.70;72.00
1259;DHT22;619;51.472;6.628;2023-03-23T09:22:44;19.40;71.40
1259;DHT22;619;51.472;6.628;2023-03-23T09:25:12;19.10;72.50
1259;DHT22;619;51.472;6.628;2023-03-23T09:27:39;18.80;74.00
1259;DHT22;619;51.472;6.628;2023-03-23T09:30:08;18.40;75.80
1259;DHT22;619;51.472;6.628;2023-03-23T09:32:38;18.10;77.40
1259;DHT22;619;51.472;6.628;2023-03-23T09:35:06;17.80;78.90
1259;DHT22;619;51.472;6.628;2023-03-23T09:37:40;17.60;80.20
1259;DHT22;619;51.472;6.628;2023-03-23T09:40:10;17.40;81.40
1259;DHT22;619;51.472;6.628;2023-03-23T09:53:43;17.00;84.00
1259;DHT22;619;51.472;6.628;2023-03-23T09:56:14;17.00;84.40
1259;DHT22;619;51.472;6.628;2023-03-23T10:01:50;17.00;83.90
1259;DHT22;619;51.472;6.628;2023-03-23T10:04:24;17.10;83.40
1259;DHT22;619;51.472;6.628;2023-03-23T10:06:56;17.00;83.00
1259;DHT22;619;51.472;6.628;2023-03-23T10:09:23;17.10;83.00
1259;DHT22;619;51.472;6.628;2023-03-23T10:17:39;17.20;82.90
1259;DHT22;619;51.472;6.628;2023-03-23T10:22:47;17.40;83.40
1259;DHT22;619;51.472;6.628;2023-03-23T10:25:18;17.50;83.50
1259;DHT22;619;51.472;6.628;2023-03-23T10:27:53;17.60;83.50
1259;DHT22;619;51.472;6.628;2023-03-23T10:30:48;17.70;83.20
1259;DHT22;619;51.472;6.628;2023-03-23T10:33:20;17.80;83.10
1259;DHT22;619;51.472;6.628;2023-03-23T10:38:49;18.00;83.80
1259;DHT22;619;51.472;6.628;2023-03-23T10:41:19;18.10;83.70
1259;DHT22;619;51.472;6.628;2023-03-23T10:43:46;18.30;83.40
1259;DHT22;619;51.472;6.628;2023-03-23T10:49:24;18.40;81.60
1259;DHT22;619;51.472;6.628;2023-03-23T10:54:46;18.50;81.00
1259;DHT22;619;51.472;6.628;2023-03-23T10:57:23;18.50;81.20
1259;DHT22;619;51.472;6.628;2023-03-23T11:00:02;18.60;81.40
1259;DHT22;619;51.472;6.628;2023-03-23T11:02:37;18.70;81.60
1259;DHT22;619;51.472;6.628;2023-03-23T11:05:21;18.80;81.80
1259;DHT22;619;51.472;6.628;2023-03-23T11:07:56;18.90;81.20
1259;DHT22;619;51.472;6.628;2023-03-23T11:10:24;18.90;80.40
1259;DHT22;619;51.472;6.628;2023-03-23T11:12:50;18.90;80.30
1259;DHT22;619;51.472;6.628;2023-03-23T11:15:37;19.00;80.90
1259;DHT22;619;51.472;6.628;2023-03-23T11:18:12;19.10;81.30
1259;DHT22;619;51.472;6.628;2023-03-23T11:20:41;19.10;80.90
1259;DHT22;619;51.472;6.628;2023-03-23T11:23:15;19.20;81.40
1259;DHT22;619;51.472;6.628;2023-03-23T11:28:29;19.20;81.00
1259;DHT22;619;51.472;6.628;2023-03-23T11:30:58;19.40;81.30
1259;DHT22;619;51.472;6.628;2023-03-23T11:33:25;19.40;81.10
1259;DHT22;619;51.472;6.628;2023-03-23T11:35:54;19.40;81.30
1259;DHT22;619;51.472;6.628;2023-03-23T11:38:25;19.50;81.10
1259;DHT22;619;51.472;6.628;2023-03-23T11:40:56;19.60;81.50
1259;DHT22;619;51.472;6.628;2023-03-23T11:43:24;19.70;81.50
1259;DHT22;619;51.472;6.628;2023-03-23T11:49:00;19.90;80.90
1259;DHT22;619;51.472;6.628;2023-03-23T11:54:30;20.20;80.40
1259;DHT22;619;51.472;6.628;2023-03-23T11:56:57;20.40;81.20
1259;DHT22;619;51.472;6.628;2023-03-23T11:59:34;20.40;80.20
1259;DHT22;619;51.472;6.628;2023-03-23T12:21:55;20.70;78.30
1259;DHT22;619;51.472;6.628;2023-03-23T12:33:08;20.50;78.20
1259;DHT22;619;51.472;6.628;2023-03-23T12:36:03;20.50;79.20
1259;DHT22;619;51.472;6.628;2023-03-23T12:41:37;20.60;78.50
1259;DHT22;619;51.472;6.628;2023-03-23T12:44:08;20.60;78.90
1259;DHT22;619;51.472;6.628;2023-03-23T12:47:07;20.70;78.90
1259;DHT22;619;51.472;6.628;2023-03-23T12:49:46;20.80;78.80
1259;DHT22;619;51.472;6.628;2023-03-23T12:52:25;21.00;78.70
1259;DHT22;619;51.472;6.628;2023-03-23T12:55:17;21.10;78.80
1259;DHT22;619;51.472;6.628;2023-03-23T12:58:12;21.30;78.90
1259;DHT22;619;51.472;6.628;2023-03-23T13:00:59;21.50;79.00
1259;DHT22;619;51.472;6.628;2023-03-23T13:03:40;21.70;77.80
1259;DHT22;619;51.472;6.628;2023-03-23T13:11:41;22.00;77.20
1259;DHT22;619;51.472;6.628;2023-03-23T13:23:09;22.90;76.80
1259;DHT22;619;51.472;6.628;2023-03-23T13:26:11;23.10;75.90
1259;DHT22;619;51.472;6.628;2023-03-23T13:33:53;23.60;74.30
1259;DHT22;619;51.472;6.628;2023-03-23T13:38:58;23.70;72.50
1259;DHT22;619;51.472;6.628;2023-03-23T13:41:26;23.70;73.00
1259;DHT22;619;51.472;6.628;2023-03-23T13:43:53;23.60;72.90
1259;DHT22;619;51.472;6.628;2023-03-23T13:46:30;23.60;73.30
1259;DHT22;619;51.472;6.628;2023-03-23T13:51:59;23.40;72.90
1259;DHT22;619;51.472;6.628;2023-03-23T13:54:50;23.30;73.10
1259;DHT22;619;51.472;6.628;2023-03-23T13:57:23;23.20;73.30
1259;DHT22;619;51.472;6.628;2023-03-23T13:59:56;23.10;74.10
1259;DHT22;619;51.472;6.628;2023-03-23T14:02:30;23.00;74.50
1259;DHT22;619;51.472;6.628;2023-03-23T14:04:57;22.90;74.10
1259;DHT22;619;51.472;6.628;2023-03-23T14:07:23;22.90;73.70
1259;DHT22;619;51.472;6.628;2023-03-23T14:09:51;22.90;74.30
1259;DHT22;619;51.472;6.628;2023-03-23T14:12:23;22.90;74.40
1259;DHT22;619;51.472;6.628;2023-03-23T14:14:58;22.80;75.10
1259;DHT22;619;51.472;6.628;2023-03-23T14:17:31;22.80;75.90
1259;DHT22;619;51.472;6.628;2023-03-23T14:19:59;22.80;76.60
1259;DHT22;619;51.472;6.628;2023-03-23T14:22:36;23.00;76.60
1259;DHT22;619;51.472;6.628;2023-03-23T14:27:41;23.40;76.40
1259;DHT22;619;51.472;6.628;2023-03-23T14:30:13;23.60;76.00
1259;DHT22;619;51.472;6.628;2023-03-23T14:32:41;23.80;75.40
1259;DHT22;619;51.472;6.628;2023-03-23T14:35:13;23.90;74.30
1259;DHT22;619;51.472;6.628;2023-03-23T14:37:42;24.00;73.90
1259;DHT22;619;51.472;6.628;2023-03-23T14:40:15;24.10;74.30
1259;DHT22;619;51.472;6.628;2023-03-23T14:42:44;24.30;74.10
1259;DHT22;619;51.472;6.628;2023-03-23T14:45:16;24.50;75.00
1259;DHT22;619;51.472;6.628;2023-03-23T14:50:39;24.70;71.10
1259;DHT22;619;51.472;6.628;2023-03-23T14:53:13;24.70;71.40
1259;DHT22;619;51.472;6.628;2023-03-23T14:55:42;24.70;71.20
1259;DHT22;619;51.472;6.628;2023-03-23T14:58:12;24.80;70.90
1259;DHT22;619;51.472;6.628;2023-03-23T15:01:15;24.80;70.10
1259;DHT22;619;51.472;6.628;2023-03-23T15:03:36;24.80;69.90
1259;DHT22;619;51.472;6.628;2023-03-23T15:06:16;24.80;71.50
1259;DHT22;619;51.472;6.628;2023-03-23T15:08:46;24.80;70.80
1259;DHT22;619;51.472;6.628;2023-03-23T15:11:22;24.80;70.40
1259;DHT22;619;51.472;6.628;2023-03-23T15:13:54;24.80;68.10
1259;DHT22;619;51.472;6.628;2023-03-23T15:16:26;24.80;68.20
1259;DHT22;619;51.472;6.628;2023-03-23T15:19:06;24.60;68.70
1259;DHT22;619;51.472;6.628;2023-03-23T15:21:47;24.60;68.50
1259;DHT22;619;51.472;6.628;2023-03-23T15:24:27;24.60;67.90
1259;DHT22;619;51.472;6.628;2023-03-23T15:27:13;24.60;67.70
1259;DHT22;619;51.472;6.628;2023-03-23T15:29:56;24.60;67.10
1259;DHT22;619;51.472;6.628;2023-03-23T15:32:31;24.60;67.10
1259;DHT22;619;51.472;6.628;2023-03-23T15:35:09;24.60;66.30
1259;DHT22;619;51.472;6.628;2023-03-23T15:37:43;24.50;65.90
1259;DHT22;619;51.472;6.628;2023-03-23T15:40:21;24.40;65.10
1259;DHT22;619;51.472;6.628;2023-03-23T15:42:47;24.30;65.20
1259;DHT22;619;51.472;6.628;2023-03-23T15:50:40;23.80;65.60
1259;DHT22;619;51.472;6.628;2023-03-23T15:55:43;23.50;66.50
1259;DHT22;619;51.472;6.628;2023-03-23T15:58:12;23.40;66.60
1259;DHT22;619;51.472;6.628;2023-03-23T16:00:44;23.40;66.60
1259;DHT22;619;51.472;6.628;2023-03-23T16:03:20;23.30;66.70
1259;DHT22;619;51.472;6.628;2023-03-23T16:05:46;23.40;66.60
1259;DHT22;619;51.472;6.628;2023-03-23T16:08:12;23.30;66.40
1259;DHT22;619;51.472;6.628;2023-03-23T16:10:39;23.30;66.50
1259;DHT22;619;51.472;6.628;2023-03-23T16:13:04;23.30;66.40
1259;DHT22;619;51.472;6.628;2023-03-23T16:15:31;23.40;66.30
1259;DHT22;619;51.472;6.628;2023-03-23T16:17:56;23.40;65.90
1259;DHT22;619;51.472;6.628;2023-03-23T16:20:23;23.40;66.10
1259;DHT22;619;51.472;6.628;2023-03-23T16:22:50;23.40;66.00
1259;DHT22;619;51.472;6.628;2023-03-23T16:25:18;23.40;65.70
1259;DHT22;619;51.472;6.628;2023-03-23T16:27:44;23.40;65.90
1259;DHT22;619;51.472;6.628;2023-03-23T16:30:21;23.40;65.70
1259;DHT22;619;51.472;6.628;2023-03-23T16:32:47;23.30;65.80
1259;DHT22;619;51.472;6.628;2023-03-23T16:35:14;23.20;66.00
1259;DHT22;619;51.472;6.628;2023-03-23T16:37:55;23.20;66.20
1259;DHT22;619;51.472;6.628;2023-03-23T16:40:22;23.00;66.50
1259;DHT22;619;51.472;6.628;2023-03-23T16:42:50;23.00;66.90
1259;DHT22;619;51.472;6.628;2023-03-23T16:45:21;23.00;66.90
1259;DHT22;619;51.472;6.628;2023-03-23T16:47:50;23.00;67.00
1259;DHT22;619;51.472;6.628;2023-03-23T16:50:17;23.00;66.60
1259;DHT22;619;51.472;6.628;2023-03-23T16:52:46;23.00;66.40
1259;DHT22;619;51.472;6.628;2023-03-23T16:55:14;22.90;66.50
1259;DHT22;619;51.472;6.628;2023-03-23T16:57:40;22.90;66.70
1259;DHT22;619;51.472;6.628;2023-03-23T17:00:10;22.80;66.80
1259;DHT22;619;51.472;6.628;2023-03-23T17:02:40;22.70;67.00
1259;DHT22;619;51.472;6.628;2023-03-23T17:05:10;22.60;67.20
1259;DHT22;619;51.472;6.628;2023-03-23T17:07:37;22.50;67.40
1259;DHT22;619;51.472;6.628;2023-03-23T17:10:04;22.40;67.60
1259;DHT22;619;51.472;6.628;2023-03-23T17:12:30;22.40;68.00
1259;DHT22;619;51.472;6.628;2023-03-23T17:14:58;22.30;68.20
1259;DHT22;619;51.472;6.628;2023-03-23T17:17:24;22.20;68.50
1259;DHT22;619;51.472;6.628;2023-03-23T17:19:52;22.10;68.70
1259;DHT22;619;51.472;6.628;2023-03-23T17:22:20;22.10;69.00
1259;DHT22;619;51.472;6.628;2023-03-23T17:24:48;22.00;70.10
1259;DHT22;619;51.472;6.628;2023-03-23T17:27:18;22.00;70.10
1259;DHT22;619;51.472;6.628;2023-03-23T17:29:46;21.90;70.60
1259;DHT22;619;51.472;6.628;2023-03-23T17:32:14;21.90;71.80
1259;DHT22;619;51.472;6.628;2023-03-23T17:34:45;21.80;71.50
1259;DHT22;619;51.472;6.628;2023-03-23T17:37:13;21.80;72.10
1259;DHT22;619;51.472;6.628;2023-03-23T17:39:41;21.80;72.60
1259;DHT22;619;51.472;6.628;2023-03-23T17:42:06;21.70;72.80
1259;DHT22;619;51.472;6.628;2023-03-23T17:44:32;21.70;73.10
1259;DHT22;619;51.472;6.628;2023-03-23T17:47:03;21.60;73.20
1259;DHT22;619;51.472;6.628;2023-03-23T17:49:29;21.50;74.00
1259;DHT22;619;51.472;6.628;2023-03-23T17:51:58;21.50;73.30
1259;DHT22;619;51.472;6.628;2023-03-23T17:54:24;21.40;73.30
1259;DHT22;619;51.472;6.628;2023-03-23T17:56:54;21.30;73.30
1259;DHT22;619;51.472;6.628;2023-03-23T17:59:22;21.20;73.00
1259;DHT22;619;51.472;6.628;2023-03-23T18:01:51;21.10;72.70
1259;DHT22;619;51.472;6.628;2023-03-23T18:04:17;21.00;72.40
1259;DHT22;619;51.472;6.628;2023-03-23T18:06:46;20.90;72.10
1259;DHT22;619;51.472;6.628;2023-03-23T18:09:12;20.80;71.70
1259;DHT22;619;51.472;6.628;2023-03-23T18:11:38;20.70;71.30
1259;DHT22;619;51.472;6.628;2023-03-23T18:14:04;20.70;71.20
1259;DHT22;619;51.472;6.628;2023-03-23T18:16:30;20.60;71.10
1259;DHT22;619;51.472;6.628;2023-03-23T18:18:58;20.60;71.10
1259;DHT22;619;51.472;6.628;2023-03-23T18:21:25;20.50;71.00
1259;DHT22;619;51.472;6.628;2023-03-23T18:23:56;20.50;70.90
1259;DHT22;619;51.472;6.628;2023-03-23T18:26:21;20.40;70.40
1259;DHT22;619;51.472;6.628;2023-03-23T18:28:50;20.40;70.00
1259;DHT22;619;51.472;6.628;2023-03-23T18:31:17;20.40;69.90
1259;DHT22;619;51.472;6.628;2023-03-23T18:33:47;20.40;69.90
1259;DHT22;619;51.472;6.628;2023-03-23T18:36:21;20.40;70.00
1259;DHT22;619;51.472;6.628;2023-03-23T18:38:47;20.50;70.00
1259;DHT22;619;51.472;6.628;2023-03-23T18:41:16;20.50;69.60
1259;DHT22;619;51.472;6.628;2023-03-23T18:43:42;20.50;69.30
1259;DHT22;619;51.472;6.628;2023-03-23T18:46:10;20.50;69.30
1259;DHT22;619;51.472;6.628;2023-03-23T18:48:35;20.50;69.10
1259;DHT22;619;51.472;6.628;2023-03-23T18:51:02;20.60;69.20